logo
Rechercher aéroport 
image banner adimage banner adimage banner ad
image banner ad

BINF - Nordfjordur

Situé à Nordfjordur, Iceland

ICAO - BINF, IATA - NOR

Données fournies par Airmate  

Information générale

Coordonnées: N65°7'54" W13°44'51"
Élévation : 6 feet MSL.
 
Voir autres Aéroports à East

Données opérationnelles

Special qualification required
Heure actuelle UTC:
Heure actuelle locale:
Météo à : BIEG - Egilsstadir ( 35 km )
METAR: BIEG 230000Z 17006KT 9999 FEW055 SCT080 05/M00 Q1012
TAF: TAF BIEG 222243Z 2300/2400 25008KT 9999 SCT040 TX14/2315Z TN01/2304Z
Voir NOTAMs / SUP AIP / TFR affectant cet aéroport [VIEW]
Fréquences de communication: [VIEW]

Pistes:

Identifiant RWYQFULongueur (ft)Largeur (ft)SurfaceLDA (ft)
0867°318275OTHER
26247°318275OTHER

Coordonnées de l'aéroport

Adresse: Nordfjordur Iceland

Vue satellite de BINF